Time;durP1;ratioP1;P1;durP2;ratioP2;P2;SDS_P1;SDS_P2;PMS_P1;PMS_P2;Temp;Humidity;BMP_temperature;BMP_pressure;BME280_temperature;BME280_humidity;BME280_pressure;Samples;Min_cycle;Max_cycle;Signal;HPM_P1;HPM_P2
2023/11/20 00:00:23;;;;;;;0.40;0.40;;;;;;;-144.99;100.00;67352.69;5071863;28;20238;-86
2023/11/20 00:02:51;;;;;;;0.10;0.10;;;;;;;-144.99;100.00;67352.69;5093704;28;20190;-84
2023/11/20 00:05:19;;;;;;;0.30;0.17;;;;;;;-144.99;100.00;67352.69;5083064;28;20228;-86
2023/11/20 00:07:46;;;;;;;2.07;0.60;;;;;;;-144.99;100.00;67352.69;5074187;28;20171;-85
2023/11/20 00:10:11;;;;;;;2.20;0.30;;;;;;;-144.99;100.00;67352.69;5075532;28;20194;-85
2023/11/20 00:12:36;;;;;;;1.23;0.40;;;;;;;-144.99;100.00;67352.69;5072586;28;20182;-85
2023/11/20 00:15:02;;;;;;;0.83;0.30;;;;;;;-144.99;100.00;67352.69;5087888;28;20209;-85
2023/11/20 00:17:27;;;;;;;0.50;0.50;;;;;;;-144.99;100.00;67352.69;5087755;28;20185;-86
2023/11/20 00:19:53;;;;;;;0.97;0.97;;;;;;;-144.99;100.00;67352.69;5063627;28;20265;-85
2023/11/20 00:22:18;;;;;;;0.23;0.23;;;;;;;-144.99;100.00;67352.69;5086550;28;20181;-85
2023/11/20 00:24:43;;;;;;;0.27;0.27;;;;;;;-144.99;100.00;67352.69;5067979;28;20226;-85
2023/11/20 00:27:09;;;;;;;0.87;0.30;;;;;;;-144.99;100.00;67352.69;5080905;28;20204;-85
2023/11/20 00:29:35;;;;;;;0.00;0.00;;;;;;;-144.99;100.00;67352.69;5101592;28;20203;-86
2023/11/20 00:32:00;;;;;;;0.73;0.10;;;;;;;-144.99;100.00;67352.69;5083225;28;20215;-86
2023/11/20 00:34:25;;;;;;;2.10;0.30;;;;;;;-144.99;100.00;67352.69;5082210;28;20213;-85
2023/11/20 00:36:51;;;;;;;0.50;0.50;;;;;;;-144.99;100.00;67352.69;5067011;28;20186;-84
2023/11/20 00:39:16;;;;;;;0.20;0.20;;;;;;;-144.99;100.00;67352.69;5071900;28;20239;-85
2023/11/20 00:41:41;;;;;;;1.00;0.43;;;;;;;-144.99;100.00;67352.69;5076664;28;20186;-85
2023/11/20 00:44:07;;;;;;;0.53;0.50;;;;;;;-144.99;100.00;67352.69;5082970;28;20198;-85
2023/11/20 00:46:32;;;;;;;0.40;0.40;;;;;;;-144.99;100.00;67352.69;5101213;28;20555;-86
2023/11/20 00:48:58;;;;;;;0.27;0.27;;;;;;;-144.99;100.00;67352.69;5102807;28;20208;-85
2023/11/20 00:51:25;;;;;;;0.33;0.33;;;;;;;-144.99;100.00;67352.69;5102207;28;20361;-84
2023/11/20 00:53:51;;;;;;;0.30;0.30;;;;;;;-144.99;100.00;67352.69;5072163;28;20284;-86
2023/11/20 00:56:18;;;;;;;0.30;0.30;;;;;;;-144.99;100.00;67352.69;5098642;28;20262;-85
2023/11/20 00:58:43;;;;;;;0.37;0.37;;;;;;;-144.99;100.00;67352.69;5079761;28;20597;-85
2023/11/20 01:01:09;;;;;;;0.93;0.37;;;;;;;-144.99;100.00;67352.69;5098558;28;20186;-86
2023/11/20 01:03:34;;;;;;;0.30;0.30;;;;;;;-144.99;100.00;67352.69;5097568;28;20675;-85
2023/11/20 01:06:04;;;;;;;0.20;0.20;;;;;;;-144.99;100.00;67352.69;5079898;28;20622;-85
2023/11/20 01:08:29;;;;;;;0.20;0.20;;;;;;;-144.99;100.00;67352.69;5079243;28;20346;-85
2023/11/20 01:10:54;;;;;;;0.33;0.33;;;;;;;-144.99;100.00;67352.69;5097940;28;20672;-86
2023/11/20 01:13:20;;;;;;;1.07;0.33;;;;;;;-144.99;100.00;67352.69;5088726;28;20213;-85
2023/11/20 01:15:45;;;;;;;0.83;0.40;;;;;;;-144.99;100.00;67352.69;5079379;28;20230;-85
2023/11/20 01:18:10;;;;;;;0.30;0.30;;;;;;;-144.99;100.00;67352.69;5088863;28;20181;-85
2023/11/20 01:20:36;;;;;;;4.87;0.33;;;;;;;-144.99;100.00;67352.69;5097569;28;20185;-86
2023/11/20 01:23:01;;;;;;;0.20;0.20;;;;;;;-144.99;100.00;67352.69;5079407;28;20178;-86
2023/11/20 01:25:26;;;;;;;0.20;0.20;;;;;;;-144.99;100.00;67352.69;5097131;28;20264;-85
2023/11/20 01:27:52;;;;;;;0.20;0.20;;;;;;;-144.99;100.00;67352.69;5090499;28;20185;-86
2023/11/20 01:30:20;;;;;;;1.70;0.37;;;;;;;-144.99;100.00;67352.69;5097548;28;20201;-85
2023/11/20 01:32:46;;;;;;;0.90;0.50;;;;;;;-144.99;100.00;67352.69;5098031;28;20234;-85
2023/11/20 01:35:11;;;;;;;0.37;0.20;;;;;;;-144.99;100.00;67352.69;5097432;28;20687;-85
2023/11/20 01:37:37;;;;;;;0.20;0.20;;;;;;;-144.99;100.00;67352.69;5079773;28;20181;-85
2023/11/20 01:40:04;;;;;;;0.33;0.33;;;;;;;-144.99;100.00;67352.69;5080589;28;20182;-86
2023/11/20 01:42:29;;;;;;;0.53;0.53;;;;;;;-144.99;100.00;67352.69;5059050;28;20193;-85
2023/11/20 01:44:55;;;;;;;0.80;0.80;;;;;;;-144.99;100.00;67352.69;5053835;28;20203;-86
2023/11/20 01:47:21;;;;;;;1.83;1.30;;;;;;;-144.99;100.00;67352.69;5076386;28;20178;-85
2023/11/20 01:49:47;;;;;;;3.20;0.50;;;;;;;-144.99;100.00;67352.69;5077439;28;20221;-85
2023/11/20 01:52:13;;;;;;;1.00;0.90;;;;;;;-144.99;100.00;67352.69;5076608;28;20178;-84
2023/11/20 01:54:38;;;;;;;1.10;1.00;;;;;;;-144.99;100.00;67352.69;5075613;28;20698;-85
2023/11/20 01:57:05;;;;;;;0.60;0.60;;;;;;;-144.99;100.00;67352.69;5075270;28;20634;-85
2023/11/20 01:59:31;;;;;;;0.97;0.97;;;;;;;-144.99;100.00;67352.69;5075435;28;20814;-85
2023/11/20 02:01:57;;;;;;;0.73;0.73;;;;;;;-144.99;100.00;67352.69;5056893;28;20192;-85
2023/11/20 02:04:23;;;;;;;4.80;1.40;;;;;;;-144.99;100.00;67352.69;5066383;28;20207;-86
2023/11/20 02:06:49;;;;;;;1.07;1.07;;;;;;;-144.99;100.00;67352.69;5074988;28;20186;-86
2023/11/20 02:09:16;;;;;;;2.00;1.90;;;;;;;-144.99;100.00;67352.69;5075341;28;20174;-86
2023/11/20 02:11:44;;;;;;;2.53;2.33;;;;;;;-144.99;100.00;67352.69;5057064;28;20593;-85
2023/11/20 02:14:09;;;;;;;3.53;2.77;;;;;;;-144.99;100.00;67352.69;5051643;28;20317;-85
2023/11/20 02:16:35;;;;;;;2.00;1.90;;;;;;;-144.99;100.00;67352.69;5079256;28;20669;-85
2023/11/20 02:19:13;;;;;;;2.27;2.07;;;;;;;-144.99;100.00;67352.69;5079268;28;20173;-86
2023/11/20 02:21:39;;;;;;;6.90;1.77;;;;;;;-144.99;100.00;67352.69;5078814;28;20177;-85
2023/11/20 02:24:05;;;;;;;2.07;1.80;;;;;;;-144.99;100.00;67352.69;5094888;22;20193;-84
2023/11/20 02:26:33;;;;;;;4.00;3.60;;;;;;;-144.99;100.00;67352.69;5053755;28;20186;-82
2023/11/20 02:29:13;;;;;;;2.67;2.47;;;;;;;-144.99;100.00;67352.69;5064816;28;20210;-81
2023/11/20 02:31:39;;;;;;;5.17;3.20;;;;;;;-144.99;100.00;67352.69;5065522;28;20268;-82
2023/11/20 02:34:05;;;;;;;3.63;2.57;;;;;;;-144.99;100.00;67352.69;5074746;28;20292;-82
2023/11/20 02:36:30;;;;;;;3.40;3.10;;;;;;;-144.99;100.00;67352.69;5077090;28;20617;-81
2023/11/20 02:38:56;;;;;;;4.07;3.67;;;;;;;-144.99;100.00;67352.69;5077193;28;20272;-81
2023/11/20 02:41:22;;;;;;;3.50;3.30;;;;;;;-144.99;100.00;67352.69;5075411;28;20178;-81
2023/11/20 02:43:47;;;;;;;2.40;2.20;;;;;;;-144.99;100.00;67352.69;5064066;28;20243;-81
2023/11/20 02:46:13;;;;;;;2.50;2.30;;;;;;;-144.99;100.00;67352.69;5094988;28;20599;-81
2023/11/20 02:48:39;;;;;;;2.43;2.23;;;;;;;-144.99;100.00;67352.69;5077193;28;20182;-82
2023/11/20 02:51:05;;;;;;;1.77;1.67;;;;;;;-144.99;100.00;67352.69;5075960;28;20190;-81
2023/11/20 02:53:31;;;;;;;2.17;1.73;;;;;;;-144.99;100.00;67352.69;5088111;28;20174;-81
2023/11/20 02:55:56;;;;;;;1.30;1.30;;;;;;;-144.99;100.00;67352.69;5076553;28;20190;-82
2023/11/20 02:58:23;;;;;;;2.03;1.93;;;;;;;-144.99;100.00;67352.69;5068599;28;20268;-81
2023/11/20 03:00:48;;;;;;;2.30;1.53;;;;;;;-144.99;100.00;67352.69;5095405;28;20636;-81
2023/11/20 03:03:15;;;;;;;1.50;1.40;;;;;;;-144.99;100.00;67352.69;5076645;28;20185;-82
2023/11/20 03:05:41;;;;;;;1.03;0.97;;;;;;;-144.99;100.00;67352.69;5054656;28;20204;-82
2023/11/20 03:08:07;;;;;;;1.20;1.20;;;;;;;-144.99;100.00;67352.69;5066257;28;20173;-81
2023/11/20 03:10:32;;;;;;;2.43;0.97;;;;;;;-144.99;100.00;67352.69;5095127;28;20261;-82
2023/11/20 03:12:57;;;;;;;3.23;1.00;;;;;;;-144.99;100.00;67352.69;5094859;28;20209;-81
2023/11/20 03:15:23;;;;;;;2.67;1.43;;;;;;;-144.99;100.00;67352.69;5076671;28;20224;-82
2023/11/20 03:17:49;;;;;;;1.80;1.13;;;;;;;-144.99;100.00;67352.69;5077703;28;20181;-81
2023/11/20 03:20:15;;;;;;;1.30;1.20;;;;;;;-144.99;100.00;67352.69;5097942;28;20743;-81
2023/11/20 03:22:40;;;;;;;0.67;0.67;;;;;;;-144.99;100.00;67352.69;5079221;28;20185;-81
2023/11/20 03:25:06;;;;;;;1.23;1.13;;;;;;;-144.99;100.00;67352.69;5077817;28;20231;-82
2023/11/20 03:27:32;;;;;;;1.23;1.00;;;;;;;-144.99;100.00;67352.69;5079645;28;20404;-81
2023/11/20 03:29:57;;;;;;;0.67;0.67;;;;;;;-144.99;100.00;67352.69;5098208;28;20169;-81
2023/11/20 03:32:23;;;;;;;1.50;0.90;;;;;;;-144.99;100.00;67352.69;5079203;28;20178;-81
2023/11/20 03:34:48;;;;;;;0.70;0.70;;;;;;;-144.99;100.00;67352.69;5097820;28;20198;-82
2023/11/20 03:37:13;;;;;;;1.97;0.90;;;;;;;-144.99;100.00;67352.69;5094243;28;20792;-81
2023/11/20 03:39:39;;;;;;;1.53;1.30;;;;;;;-144.99;100.00;67352.69;5082108;28;20602;-81
2023/11/20 03:42:04;;;;;;;2.00;1.57;;;;;;;-144.99;100.00;67352.69;5095550;28;20712;-82
2023/11/20 03:44:30;;;;;;;1.27;1.20;;;;;;;-144.99;100.00;67352.69;5095751;28;20295;-81
2023/11/20 03:46:55;;;;;;;1.10;1.10;;;;;;;-144.99;100.00;67352.69;5095927;28;20182;-82
2023/11/20 03:49:20;;;;;;;0.83;0.83;;;;;;;-144.99;100.00;67352.69;5095721;28;20174;-82
2023/11/20 03:51:46;;;;;;;2.40;2.07;;;;;;;-144.99;100.00;67352.69;5095336;28;20184;-81
2023/11/20 03:54:11;;;;;;;2.07;1.80;;;;;;;-144.99;100.00;67352.69;5066470;28;20276;-81
2023/11/20 03:56:36;;;;;;;2.60;2.03;;;;;;;-144.99;100.00;67352.69;5088417;28;20212;-81
2023/11/20 03:59:02;;;;;;;2.00;1.90;;;;;;;-144.99;100.00;67352.69;5094969;28;20181;-81
2023/11/20 04:01:27;;;;;;;2.70;2.50;;;;;;;-144.99;100.00;67352.69;5076794;28;20182;-81
2023/11/20 04:03:53;;;;;;;2.37;2.27;;;;;;;-144.99;100.00;67352.69;5076803;28;20590;-82
2023/11/20 04:06:18;;;;;;;2.60;2.50;;;;;;;-144.99;100.00;67352.69;5075863;28;20210;-81
2023/11/20 04:08:43;;;;;;;4.80;3.33;;;;;;;-144.99;100.00;67352.69;5094764;28;20176;-81
2023/11/20 04:11:09;;;;;;;3.97;3.17;;;;;;;-144.99;100.00;67352.69;5076277;28;20182;-81
2023/11/20 04:13:35;;;;;;;7.13;2.97;;;;;;;-144.99;100.00;67352.69;5068360;28;20182;-81
2023/11/20 04:16:01;;;;;;;5.27;3.87;;;;;;;-144.99;100.00;67352.69;5095396;28;20193;-81
2023/11/20 04:18:27;;;;;;;5.07;3.50;;;;;;;-144.99;100.00;67352.69;5095749;28;20178;-81
2023/11/20 04:20:53;;;;;;;3.13;2.93;;;;;;;-144.99;100.00;67352.69;5077028;28;20192;-82
2023/11/20 04:23:19;;;;;;;4.20;2.90;;;;;;;-144.99;100.00;67352.69;5094539;28;20267;-82
2023/11/20 04:25:44;;;;;;;2.53;2.37;;;;;;;-144.99;100.00;67352.69;5075793;28;20717;-82
2023/11/20 04:28:09;;;;;;;4.70;2.73;;;;;;;-144.99;100.00;67352.69;5075969;28;20258;-82
2023/11/20 04:30:35;;;;;;;1.40;1.30;;;;;;;-144.99;100.00;67352.69;5094433;28;20178;-82
2023/11/20 04:33:02;;;;;;;2.27;2.07;;;;;;;-144.99;100.00;67352.69;5093837;28;20220;-82
2023/11/20 04:35:28;;;;;;;1.60;1.20;;;;;;;-144.99;100.00;67352.69;5093710;28;20619;-82
2023/11/20 04:37:53;;;;;;;2.93;2.37;;;;;;;-144.99;100.00;67352.69;5092543;28;20205;-82
2023/11/20 04:40:19;;;;;;;4.90;2.43;;;;;;;-144.99;100.00;67352.69;5094112;28;20265;-81
2023/11/20 04:42:44;;;;;;;1.40;1.30;;;;;;;-144.99;100.00;67352.69;5075516;28;20173;-81
2023/11/20 04:45:10;;;;;;;5.00;1.83;;;;;;;-144.99;100.00;67352.69;5093586;28;20206;-81
2023/11/20 04:47:35;;;;;;;1.63;1.00;;;;;;;-144.99;100.00;67352.69;5093850;28;20214;-82
2023/11/20 04:50:01;;;;;;;1.43;1.33;;;;;;;-144.99;100.00;67352.69;5093832;28;20261;-82
2023/11/20 04:52:27;;;;;;;2.20;1.90;;;;;;;-144.99;100.00;67352.69;5075519;28;20185;-82
2023/11/20 04:54:56;;;;;;;2.40;1.73;;;;;;;-144.99;100.00;67352.69;5074915;28;20204;-82
2023/11/20 04:57:22;;;;;;;2.53;1.50;;;;;;;-144.99;100.00;67352.69;5075233;28;20209;-82
2023/11/20 04:59:47;;;;;;;1.90;1.70;;;;;;;-144.99;100.00;67352.69;5075225;28;20205;-82
2023/11/20 05:02:13;;;;;;;5.90;1.40;;;;;;;-144.99;100.00;67352.69;5074746;28;20185;-82
2023/11/20 05:04:38;;;;;;;2.40;1.60;;;;;;;-144.99;100.00;67352.69;5092501;28;20205;-82
2023/11/20 05:07:04;;;;;;;1.80;1.70;;;;;;;-144.99;100.00;67352.69;5093082;28;20170;-82
2023/11/20 05:09:29;;;;;;;1.97;1.70;;;;;;;-144.99;100.00;67352.69;5093184;28;20178;-82
2023/11/20 05:11:56;;;;;;;1.00;1.00;;;;;;;-144.99;100.00;67352.69;5092856;28;20256;-82
2023/11/20 05:14:22;;;;;;;4.93;2.30;;;;;;;-144.99;100.00;67352.69;5074646;28;20618;-82
2023/11/20 05:16:47;;;;;;;1.13;1.13;;;;;;;-144.99;100.00;67352.69;5074547;28;20182;-83
2023/11/20 05:19:13;;;;;;;4.87;2.17;;;;;;;-144.99;100.00;67352.69;5092356;28;20208;-82
2023/11/20 05:21:41;;;;;;;1.57;1.47;;;;;;;-144.99;100.00;67352.69;5074800;28;20205;-82
2023/11/20 05:24:07;;;;;;;1.87;1.77;;;;;;;-144.99;100.00;67352.69;5092431;28;20202;-82
2023/11/20 05:26:33;;;;;;;3.47;3.17;;;;;;;-144.99;100.00;67352.69;5092857;28;20178;-82
2023/11/20 05:28:58;;;;;;;3.80;2.97;;;;;;;-144.99;100.00;67352.69;5074515;28;20223;-82
2023/11/20 05:31:23;;;;;;;2.80;2.67;;;;;;;-144.99;100.00;67352.69;5074345;28;20548;-82
2023/11/20 05:33:49;;;;;;;3.93;3.13;;;;;;;-144.99;100.00;67352.69;5074071;28;20184;-82
2023/11/20 05:36:14;;;;;;;1.63;1.53;;;;;;;-144.99;100.00;67352.69;5092420;28;20260;-82
2023/11/20 05:38:40;;;;;;;4.50;1.83;;;;;;;-144.99;100.00;67352.69;5073995;28;20663;-82
2023/11/20 05:41:06;;;;;;;2.00;1.77;;;;;;;-144.99;100.00;67352.69;5092014;28;20216;-82
2023/11/20 05:43:32;;;;;;;1.23;1.13;;;;;;;-144.99;100.00;67352.69;5073830;28;20180;-82
2023/11/20 05:45:57;;;;;;;2.97;1.57;;;;;;;-144.99;100.00;67352.69;5073261;28;20786;-82
2023/11/20 05:48:22;;;;;;;1.67;1.30;;;;;;;-144.99;100.00;67352.69;5083106;28;20269;-81
2023/11/20 05:50:48;;;;;;;1.50;1.40;;;;;;;-144.99;100.00;67352.69;5091892;28;20188;-82
2023/11/20 05:53:16;;;;;;;1.20;1.10;;;;;;;-144.99;100.00;67352.69;5091709;28;20173;-82
2023/11/20 05:55:41;;;;;;;0.93;0.93;;;;;;;-144.99;100.00;67352.69;5073471;28;20190;-82
2023/11/20 05:58:06;;;;;;;1.07;1.00;;;;;;;-144.99;100.00;67352.69;5073531;28;20233;-82
2023/11/20 06:00:32;;;;;;;1.40;1.10;;;;;;;-144.99;100.00;67352.69;5073772;28;20174;-82
2023/11/20 06:02:57;;;;;;;1.37;1.30;;;;;;;-144.99;100.00;67352.69;5065137;28;20204;-82
2023/11/20 06:05:22;;;;;;;1.27;1.10;;;;;;;-144.99;100.00;67352.69;5091494;28;20213;-82
2023/11/20 06:07:48;;;;;;;3.27;1.20;;;;;;;-144.99;100.00;67352.69;5073387;28;20228;-82
2023/11/20 06:10:13;;;;;;;1.73;1.63;;;;;;;-144.99;100.00;67352.69;5092284;28;20182;-82
2023/11/20 06:12:39;;;;;;;2.00;1.90;;;;;;;-144.99;100.00;67352.69;5074385;28;20204;-82
2023/11/20 06:15:05;;;;;;;2.00;1.90;;;;;;;-144.99;100.00;67352.69;5074029;28;20729;-82
2023/11/20 06:17:30;;;;;;;1.33;0.80;;;;;;;-144.99;100.00;67352.69;5092093;28;20193;-82
2023/11/20 06:19:56;;;;;;;2.27;2.07;;;;;;;-144.99;100.00;67352.69;5074821;28;20182;-82
2023/11/20 06:22:21;;;;;;;1.93;1.67;;;;;;;-144.99;100.00;67352.69;5074341;28;20188;-82
2023/11/20 06:24:47;;;;;;;2.40;2.20;;;;;;;-144.99;100.00;67352.69;5073524;28;20209;-82
2023/11/20 06:27:13;;;;;;;2.87;2.60;;;;;;;-144.99;100.00;67352.69;5091851;28;20201;-83
2023/11/20 06:29:39;;;;;;;2.73;2.53;;;;;;;-144.99;100.00;67352.69;5074119;28;20182;-82
2023/11/20 06:32:06;;;;;;;3.10;2.80;;;;;;;-144.99;100.00;67352.69;5091891;28;20532;-86
2023/11/20 06:34:32;;;;;;;4.17;3.77;;;;;;;-144.99;100.00;67352.69;5091860;28;20590;-82
2023/11/20 06:37:01;;;;;;;4.70;3.43;;;;;;;-144.99;100.00;67352.69;5074302;28;20602;-82
2023/11/20 06:39:26;;;;;;;4.10;3.80;;;;;;;-144.99;100.00;67352.69;5073866;28;20675;-83
2023/11/20 06:41:52;;;;;;;3.57;3.27;;;;;;;-144.99;100.00;67352.69;5074383;28;20182;-82
2023/11/20 06:44:18;;;;;;;4.57;4.13;;;;;;;-144.99;100.00;67352.69;5074532;28;20310;-82
2023/11/20 06:46:43;;;;;;;4.77;4.17;;;;;;;-144.99;100.00;67352.69;5074641;28;20639;-82
2023/11/20 06:49:09;;;;;;;6.13;4.43;;;;;;;-144.99;100.00;67352.69;5074856;28;20272;-82
2023/11/20 06:51:34;;;;;;;3.77;3.30;;;;;;;-144.99;100.00;67352.69;5074889;28;20181;-82
2023/11/20 06:54:00;;;;;;;4.27;3.80;;;;;;;-144.99;100.00;67352.69;5084375;28;20647;-82
2023/11/20 06:56:26;;;;;;;1.70;1.60;;;;;;;-144.99;100.00;67352.69;5074121;28;20189;-82
2023/11/20 06:58:52;;;;;;;3.43;3.23;;;;;;;-144.99;100.00;67352.69;5074721;28;20190;-82
2023/11/20 07:01:17;;;;;;;3.87;2.90;;;;;;;-144.99;100.00;67352.69;5096114;28;20189;-81
2023/11/20 07:03:43;;;;;;;2.37;2.27;;;;;;;-144.99;100.00;67352.69;5079420;28;20184;-82
2023/11/20 07:06:14;;;;;;;4.00;3.03;;;;;;;-144.99;100.00;67352.69;5096774;28;20202;-82
2023/11/20 07:08:39;;;;;;;6.60;2.57;;;;;;;-144.99;100.00;67352.69;5078454;28;20707;-82
2023/11/20 07:11:05;;;;;;;3.30;3.03;;;;;;;-144.99;100.00;67352.69;5096142;28;20212;-82
2023/11/20 07:13:30;;;;;;;2.90;2.70;;;;;;;-144.99;100.00;67352.69;5096563;28;20598;-82
2023/11/20 07:15:57;;;;;;;3.13;2.93;;;;;;;-144.99;100.00;67352.69;5096816;28;20276;-82
2023/11/20 07:18:23;;;;;;;3.03;2.73;;;;;;;-144.99;100.00;67352.69;5097087;28;20189;-82
2023/11/20 07:20:48;;;;;;;2.83;2.67;;;;;;;-144.99;100.00;67352.69;5096898;28;20200;-82
2023/11/20 07:23:13;;;;;;;5.00;2.20;;;;;;;-144.99;100.00;67352.69;5096525;28;20177;-82
2023/11/20 07:25:39;;;;;;;4.00;3.57;;;;;;;-144.99;100.00;67352.69;5095673;28;20228;-82
2023/11/20 07:28:05;;;;;;;2.63;2.27;;;;;;;-144.99;100.00;67352.69;5078167;28;20809;-82
2023/11/20 07:30:31;;;;;;;3.40;2.13;;;;;;;-144.99;100.00;67352.69;5096536;28;20173;-82
2023/11/20 07:32:56;;;;;;;2.93;2.73;;;;;;;-144.99;100.00;67352.69;5097196;28;20178;-82
2023/11/20 07:35:22;;;;;;;3.03;2.80;;;;;;;-144.99;100.00;67352.69;5077698;28;20284;-82
2023/11/20 07:37:47;;;;;;;1.80;1.70;;;;;;;-144.99;100.00;67352.69;5085582;28;20209;-81
2023/11/20 07:40:12;;;;;;;2.00;1.90;;;;;;;-144.99;100.00;67352.69;5085657;28;20217;-82
2023/11/20 07:42:39;;;;;;;1.60;1.50;;;;;;;-144.99;100.00;67352.69;5052910;28;20174;-82
2023/11/20 07:45:05;;;;;;;1.70;1.60;;;;;;;-144.99;100.00;67352.69;5083523;28;20208;-82
2023/11/20 07:47:30;;;;;;;3.17;2.80;;;;;;;-144.99;100.00;67352.69;5074399;28;20698;-82
2023/11/20 07:49:56;;;;;;;2.73;2.53;;;;;;;-144.99;100.00;67352.69;5064682;28;20181;-82
2023/11/20 07:52:21;;;;;;;5.60;2.83;;;;;;;-144.99;100.00;67352.69;5094613;28;20178;-82
2023/11/20 07:54:47;;;;;;;3.73;3.43;;;;;;;-144.99;100.00;67352.69;5072795;28;20580;-82
2023/11/20 07:57:15;;;;;;;3.20;2.30;;;;;;;-144.99;100.00;67352.69;5072387;28;20174;-82
2023/11/20 07:59:41;;;;;;;1.57;1.47;;;;;;;-144.99;100.00;67352.69;5047349;28;20619;-82
2023/11/20 08:02:07;;;;;;;2.40;2.20;;;;;;;-144.99;100.00;67352.69;5077483;28;20228;-82
2023/11/20 08:04:34;;;;;;;2.73;2.43;;;;;;;-144.99;100.00;67352.69;5093606;28;20200;-82
2023/11/20 08:07:00;;;;;;;5.00;3.87;;;;;;;-144.99;100.00;67352.69;5093207;28;20611;-82
2023/11/20 08:09:25;;;;;;;2.30;2.10;;;;;;;-144.99;100.00;67352.69;5085811;28;20197;-82
2023/11/20 08:11:52;;;;;;;17.20;1.63;;;;;;;-144.99;100.00;67352.69;5075593;28;20293;-82
2023/11/20 08:14:18;;;;;;;11.87;2.10;;;;;;;-144.99;100.00;67352.69;5067444;28;20228;-82
2023/11/20 08:16:44;;;;;;;1.20;1.20;;;;;;;-144.99;100.00;67352.69;5078981;28;20627;-82
2023/11/20 08:19:09;;;;;;;1.67;1.57;;;;;;;-144.99;100.00;67352.69;5056732;28;20206;-82
2023/11/20 08:21:34;;;;;;;1.63;1.53;;;;;;;-144.99;100.00;67352.69;5056910;28;20188;-82
2023/11/20 08:24:00;;;;;;;0.80;0.80;;;;;;;-144.99;100.00;67352.69;5075124;28;20186;-83
2023/11/20 08:26:25;;;;;;;1.40;1.30;;;;;;;-144.99;100.00;67352.69;5056044;28;20205;-83
2023/11/20 08:28:51;;;;;;;0.80;0.77;;;;;;;-144.99;100.00;67352.69;5074663;28;20663;-83
2023/11/20 08:31:16;;;;;;;0.70;0.70;;;;;;;-144.99;100.00;67352.69;5057007;28;20217;-82
2023/11/20 08:33:41;;;;;;;0.97;0.80;;;;;;;-144.99;100.00;67352.69;5056814;28;20182;-83
2023/11/20 08:36:10;;;;;;;2.30;1.27;;;;;;;-144.99;100.00;67352.69;5054808;28;20207;-83
2023/11/20 08:38:35;;;;;;;0.97;0.97;;;;;;;-144.99;100.00;67352.69;5056575;28;20243;-83
2023/11/20 08:41:00;;;;;;;1.77;1.33;;;;;;;-144.99;100.00;67352.69;5074286;28;20705;-82
2023/11/20 08:43:27;;;;;;;2.60;2.07;;;;;;;-144.99;100.00;67352.69;5056475;28;20219;-83
2023/11/20 08:45:53;;;;;;;2.67;2.47;;;;;;;-144.99;100.00;67352.69;5074363;28;20584;-82
2023/11/20 08:48:18;;;;;;;1.37;1.27;;;;;;;-144.99;100.00;67352.69;5074815;28;20192;-83
2023/11/20 08:50:44;;;;;;;1.90;1.23;;;;;;;-144.99;100.00;67352.69;5057131;28;20696;-83
2023/11/20 08:53:09;;;;;;;1.73;1.63;;;;;;;-144.99;100.00;67352.69;5056420;28;20186;-83
2023/11/20 08:55:35;;;;;;;1.70;1.60;;;;;;;-144.99;100.00;67352.69;5074938;28;20198;-83
2023/11/20 08:58:03;;;;;;;4.23;1.87;;;;;;;-144.99;100.00;67352.69;5072635;28;20183;-82
2023/11/20 09:02:56;;;;;;;3.60;1.40;;;;;;;-144.99;100.00;67352.69;5055003;28;20230;-86
2023/11/20 09:05:22;;;;;;;3.20;1.83;;;;;;;-144.99;100.00;67352.69;5059083;28;20206;-86
2023/11/20 09:07:47;;;;;;;1.93;1.73;;;;;;;-144.99;100.00;67352.69;5058712;28;20615;-86
2023/11/20 09:10:12;;;;;;;11.07;3.17;;;;;;;-144.99;100.00;67352.69;5063472;28;20175;-86
2023/11/20 09:12:39;;;;;;;1.23;1.13;;;;;;;-144.99;100.00;67352.69;5076812;28;20198;-85
2023/11/20 09:15:06;;;;;;;2.10;2.00;;;;;;;-144.99;100.00;67352.69;5080245;28;20190;-85
2023/11/20 09:17:32;;;;;;;1.73;1.63;;;;;;;-144.99;100.00;67352.69;5077480;28;20179;-86
2023/11/20 09:19:58;;;;;;;2.63;2.43;;;;;;;-144.99;100.00;67352.69;5077671;28;20178;-86
2023/11/20 09:22:25;;;;;;;4.67;2.57;;;;;;;-144.99;100.00;67352.69;5068535;28;20206;-86
2023/11/20 09:24:51;;;;;;;4.90;3.60;;;;;;;-144.99;100.00;67352.69;5080473;28;20202;-85
2023/11/20 09:27:18;;;;;;;3.43;3.13;;;;;;;-144.99;100.00;67352.69;5079442;28;20178;-85
2023/11/20 09:29:44;;;;;;;4.43;3.90;;;;;;;-144.99;100.00;67352.69;5073757;28;20174;-86
2023/11/20 09:32:10;;;;;;;10.60;4.90;;;;;;;-144.99;100.00;67352.69;5073776;28;20199;-85
2023/11/20 09:34:36;;;;;;;3.57;3.13;;;;;;;-144.99;100.00;67352.69;5073200;28;20666;-87
2023/11/20 09:37:01;;;;;;;4.30;3.90;;;;;;;-144.99;100.00;67352.69;5073957;28;20186;-86
2023/11/20 09:39:27;;;;;;;4.90;4.60;;;;;;;-144.99;100.00;67352.69;5073379;28;20178;-86
2023/11/20 09:41:52;;;;;;;6.50;5.07;;;;;;;-144.99;100.00;67352.69;5073982;28;20209;-86
2023/11/20 09:44:19;;;;;;;3.70;3.40;;;;;;;-144.99;100.00;67352.69;5072374;28;20190;-86
2023/11/20 09:46:45;;;;;;;4.80;3.60;;;;;;;-144.99;100.00;67352.69;5072901;28;20174;-86
2023/11/20 09:49:20;;;;;;;3.30;3.00;;;;;;;-144.99;100.00;67352.69;5073889;28;20182;-86
2023/11/20 09:51:46;;;;;;;2.27;2.07;;;;;;;-144.99;100.00;67352.69;5072689;28;20294;-86
2023/11/20 09:54:13;;;;;;;3.63;3.27;;;;;;;-144.99;100.00;67352.69;5072493;28;20228;-86
2023/11/20 09:56:38;;;;;;;3.00;2.80;;;;;;;-144.99;100.00;67352.69;5072765;28;20174;-86
2023/11/20 09:59:03;;;;;;;6.40;4.70;;;;;;;-144.99;100.00;67352.69;5073417;28;20236;-86
2023/11/20 10:01:30;;;;;;;4.77;4.40;;;;;;;-144.99;100.00;67352.69;5073470;28;20214;-87
2023/11/20 10:03:56;;;;;;;5.70;4.43;;;;;;;-144.99;100.00;67352.69;5073433;28;20311;-87
2023/11/20 10:06:25;;;;;;;5.80;4.60;;;;;;;-144.99;100.00;67352.69;5071298;28;20277;-86
2023/11/20 10:08:50;;;;;;;3.80;3.27;;;;;;;-144.99;100.00;67352.69;5073022;28;20265;-86
2023/11/20 10:11:20;;;;;;;4.47;4.10;;;;;;;-144.99;100.00;67352.69;5069351;28;20266;-86
2023/11/20 10:13:45;;;;;;;5.27;4.77;;;;;;;-144.99;100.00;67352.69;5074165;28;20194;-86
2023/11/20 10:16:22;;;;;;;4.43;3.07;;;;;;;-144.99;100.00;67352.69;5075482;28;20661;-86
2023/11/20 10:18:48;;;;;;;9.97;2.63;;;;;;;-144.99;100.00;67352.69;5076050;28;20221;-86
2023/11/20 10:21:13;;;;;;;3.47;3.17;;;;;;;-144.99;100.00;67352.69;5075646;28;20210;-85
2023/11/20 10:23:40;;;;;;;4.33;3.37;;;;;;;-144.99;100.00;67352.69;5070280;28;20170;-85
2023/11/20 10:26:07;;;;;;;4.93;4.50;;;;;;;-144.99;100.00;67352.69;5068284;28;20198;-86
2023/11/20 10:28:36;;;;;;;11.27;3.93;;;;;;;-144.99;100.00;67352.69;5072796;28;20175;-84
2023/11/20 10:31:02;;;;;;;5.60;2.53;;;;;;;-144.99;100.00;67352.69;5069706;28;20198;-85
2023/11/20 10:33:28;;;;;;;11.20;4.13;;;;;;;-144.99;100.00;67352.69;5072402;28;20522;-85
2023/11/20 10:35:53;;;;;;;4.97;1.97;;;;;;;-144.99;100.00;67352.69;5078598;28;20224;-87
2023/11/20 10:38:21;;;;;;;3.57;3.03;;;;;;;-144.99;100.00;67352.69;5079142;28;20263;-86
2023/11/20 10:40:49;;;;;;;3.73;3.23;;;;;;;-144.99;100.00;67352.69;5077249;28;20182;-85
2023/11/20 10:43:15;;;;;;;7.03;3.27;;;;;;;-144.99;100.00;67352.69;5076026;28;20178;-85
2023/11/20 10:45:40;;;;;;;2.00;1.87;;;;;;;-144.99;100.00;67352.69;5078637;28;20198;-85
2023/11/20 10:48:09;;;;;;;3.73;3.00;;;;;;;-144.99;100.00;67352.69;5077624;28;20682;-85
2023/11/20 10:50:36;;;;;;;3.03;2.23;;;;;;;-144.99;100.00;67352.69;5079726;28;20181;-86
2023/11/20 10:53:08;;;;;;;3.67;3.33;;;;;;;-144.99;100.00;67352.69;5077635;28;20182;-86
2023/11/20 10:55:40;;;;;;;13.63;3.83;;;;;;;-144.99;100.00;67352.69;5078872;28;20185;-86
2023/11/20 10:58:08;;;;;;;8.90;3.53;;;;;;;-144.99;100.00;67352.69;5082168;28;20229;-86
2023/11/20 11:00:34;;;;;;;6.87;3.53;;;;;;;-144.99;100.00;67352.69;5078338;28;20171;-86
2023/11/20 11:03:01;;;;;;;3.57;3.27;;;;;;;-144.99;100.00;67352.69;5078003;28;20223;-85
2023/11/20 11:05:29;;;;;;;9.40;5.30;;;;;;;-144.99;100.00;67352.69;5077700;28;20210;-86